sensor_id;sensor_type;location;lat;lon;timestamp;pressure;altitude;pressure_sealevel;temperature;humidity
27984;BME280;15317;50.360;8.726;2023-05-03T00:01:08;100565.84;;;5.56;87.97
27984;BME280;15317;50.360;8.726;2023-05-03T00:06:11;100557.41;;;5.48;88.42
27984;BME280;15317;50.360;8.726;2023-05-03T00:11:15;100554.66;;;5.35;89.47
27984;BME280;15317;50.360;8.726;2023-05-03T00:16:19;100551.31;;;5.32;89.18
27984;BME280;15317;50.360;8.726;2023-05-03T00:21:22;100551.59;;;5.27;90.05
27984;BME280;15317;50.360;8.726;2023-05-03T00:26:26;100539.22;;;5.25;90.15
27984;BME280;15317;50.360;8.726;2023-05-03T00:31:31;100550.16;;;5.22;90.20
27984;BME280;15317;50.360;8.726;2023-05-03T00:36:34;100535.94;;;5.20;90.92
27984;BME280;15317;50.360;8.726;2023-05-03T00:41:38;100539.81;;;5.15;90.29
27984;BME280;15317;50.360;8.726;2023-05-03T00:46:42;100525.66;;;5.12;91.29
27984;BME280;15317;50.360;8.726;2023-05-03T00:51:45;100530.09;;;4.99;93.19
27984;BME280;15317;50.360;8.726;2023-05-03T00:56:48;100530.22;;;4.97;93.00
27984;BME280;15317;50.360;8.726;2023-05-03T01:01:54;100521.56;;;4.92;91.53
27984;BME280;15317;50.360;8.726;2023-05-03T01:07:06;100516.78;;;4.83;92.88
27984;BME280;15317;50.360;8.726;2023-05-03T01:12:19;100509.00;;;4.78;93.93
27984;BME280;15317;50.360;8.726;2023-05-03T01:17:29;100506.78;;;4.71;94.84
27984;BME280;15317;50.360;8.726;2023-05-03T01:22:41;100503.63;;;4.64;95.13
27984;BME280;15317;50.360;8.726;2023-05-03T01:27:50;100508.94;;;4.52;97.22
27984;BME280;15317;50.360;8.726;2023-05-03T01:33:01;100511.63;;;4.52;96.48
27984;BME280;15317;50.360;8.726;2023-05-03T01:38:07;100501.47;;;4.43;96.68
27984;BME280;15317;50.360;8.726;2023-05-03T01:43:12;100507.31;;;4.35;98.01
27984;BME280;15317;50.360;8.726;2023-05-03T01:48:18;100510.97;;;4.34;96.71
27984;BME280;15317;50.360;8.726;2023-05-03T01:53:22;100503.16;;;4.44;96.27
27984;BME280;15317;50.360;8.726;2023-05-03T01:58:26;100507.69;;;4.43;96.11
27984;BME280;15317;50.360;8.726;2023-05-03T02:03:29;100502.03;;;4.33;97.32
27984;BME280;15317;50.360;8.726;2023-05-03T02:08:32;100507.22;;;4.22;96.89
27984;BME280;15317;50.360;8.726;2023-05-03T02:13:37;100506.22;;;4.23;96.68
27984;BME280;15317;50.360;8.726;2023-05-03T02:18:40;100513.06;;;4.15;96.69
27984;BME280;15317;50.360;8.726;2023-05-03T02:23:44;100513.53;;;4.21;97.25
27984;BME280;15317;50.360;8.726;2023-05-03T02:28:49;100525.84;;;4.25;96.82
27984;BME280;15317;50.360;8.726;2023-05-03T02:33:52;100533.59;;;4.30;95.76
27984;BME280;15317;50.360;8.726;2023-05-03T02:38:56;100541.78;;;4.28;96.29
27984;BME280;15317;50.360;8.726;2023-05-03T02:44:01;100532.63;;;4.17;96.89
27984;BME280;15317;50.360;8.726;2023-05-03T02:49:04;100533.13;;;4.09;97.44
27984;BME280;15317;50.360;8.726;2023-05-03T02:54:08;100536.00;;;4.06;97.51
27984;BME280;15317;50.360;8.726;2023-05-03T02:59:12;100529.63;;;3.93;98.45
27984;BME280;15317;50.360;8.726;2023-05-03T03:04:15;100530.78;;;3.89;99.28
27984;BME280;15317;50.360;8.726;2023-05-03T03:09:19;100529.03;;;3.88;98.71
27984;BME280;15317;50.360;8.726;2023-05-03T03:14:23;100522.72;;;3.89;98.76
27984;BME280;15317;50.360;8.726;2023-05-03T03:19:26;100520.78;;;3.91;97.90
27984;BME280;15317;50.360;8.726;2023-05-03T03:24:30;100510.59;;;3.96;97.04
27984;BME280;15317;50.360;8.726;2023-05-03T03:29:35;100513.22;;;3.97;96.86
27984;BME280;15317;50.360;8.726;2023-05-03T03:34:38;100511.75;;;3.92;97.39
27984;BME280;15317;50.360;8.726;2023-05-03T03:39:41;100509.88;;;3.94;96.37
27984;BME280;15317;50.360;8.726;2023-05-03T03:44:45;100513.28;;;3.96;96.00
27984;BME280;15317;50.360;8.726;2023-05-03T03:49:48;100533.09;;;3.95;96.82
27984;BME280;15317;50.360;8.726;2023-05-03T03:54:51;100532.41;;;3.91;96.80
27984;BME280;15317;50.360;8.726;2023-05-03T03:59:56;100527.31;;;3.87;96.23
27984;BME280;15317;50.360;8.726;2023-05-03T04:05:00;100522.97;;;3.84;96.93
27984;BME280;15317;50.360;8.726;2023-05-03T04:10:04;100530.94;;;3.86;96.31
27984;BME280;15317;50.360;8.726;2023-05-03T04:15:10;100535.63;;;3.82;97.12
27984;BME280;15317;50.360;8.726;2023-05-03T04:20:13;100538.44;;;3.81;96.62
27984;BME280;15317;50.360;8.726;2023-05-03T04:25:20;100548.22;;;3.82;97.33
27984;BME280;15317;50.360;8.726;2023-05-03T04:30:24;100555.81;;;3.89;96.98
27984;BME280;15317;50.360;8.726;2023-05-03T04:35:27;100555.47;;;3.95;96.50
27984;BME280;15317;50.360;8.726;2023-05-03T04:40:30;100560.56;;;4.00;95.45
27984;BME280;15317;50.360;8.726;2023-05-03T04:45:36;100558.44;;;4.05;96.19
27984;BME280;15317;50.360;8.726;2023-05-03T04:50:39;100555.59;;;4.08;95.29
27984;BME280;15317;50.360;8.726;2023-05-03T04:55:42;100550.78;;;4.13;95.17
27984;BME280;15317;50.360;8.726;2023-05-03T05:00:46;100561.75;;;4.24;94.71
27984;BME280;15317;50.360;8.726;2023-05-03T05:05:49;100561.75;;;4.38;92.75
27984;BME280;15317;50.360;8.726;2023-05-03T05:10:53;100560.91;;;4.52;93.17
27984;BME280;15317;50.360;8.726;2023-05-03T05:15:58;100559.97;;;4.67;92.93
27984;BME280;15317;50.360;8.726;2023-05-03T05:21:01;100567.47;;;4.76;90.06
27984;BME280;15317;50.360;8.726;2023-05-03T05:26:04;100568.31;;;4.91;91.40
27984;BME280;15317;50.360;8.726;2023-05-03T05:31:08;100559.34;;;5.05;88.90
27984;BME280;15317;50.360;8.726;2023-05-03T05:36:12;100574.31;;;5.23;88.95
27984;BME280;15317;50.360;8.726;2023-05-03T05:41:15;100574.78;;;5.30;87.96
27984;BME280;15317;50.360;8.726;2023-05-03T05:46:20;100571.19;;;5.43;87.63
27984;BME280;15317;50.360;8.726;2023-05-03T05:51:24;100580.09;;;5.58;83.64
27984;BME280;15317;50.360;8.726;2023-05-03T05:56:28;100565.88;;;5.69;85.63
27984;BME280;15317;50.360;8.726;2023-05-03T06:01:33;100571.13;;;5.84;85.13
27984;BME280;15317;50.360;8.726;2023-05-03T06:06:36;100569.53;;;5.94;84.91
27984;BME280;15317;50.360;8.726;2023-05-03T06:11:39;100576.25;;;6.02;83.92
27984;BME280;15317;50.360;8.726;2023-05-03T06:16:45;100566.78;;;6.09;84.44
27984;BME280;15317;50.360;8.726;2023-05-03T06:21:48;100563.91;;;6.37;83.29
27984;BME280;15317;50.360;8.726;2023-05-03T06:26:51;100567.34;;;6.64;83.93
27984;BME280;15317;50.360;8.726;2023-05-03T06:31:56;100580.47;;;7.20;78.82
27984;BME280;15317;50.360;8.726;2023-05-03T06:36:59;100583.63;;;7.98;75.13
27984;BME280;15317;50.360;8.726;2023-05-03T06:42:02;100577.94;;;8.70;74.10
27984;BME280;15317;50.360;8.726;2023-05-03T06:47:07;100580.28;;;9.20;68.61
27984;BME280;15317;50.360;8.726;2023-05-03T06:52:10;100582.97;;;10.17;66.27
27984;BME280;15317;50.360;8.726;2023-05-03T06:57:13;100586.34;;;10.72;61.86
27984;BME280;15317;50.360;8.726;2023-05-03T07:02:17;100571.41;;;10.77;62.89
27984;BME280;15317;50.360;8.726;2023-05-03T07:07:21;100565.97;;;10.77;62.58
27984;BME280;15317;50.360;8.726;2023-05-03T07:12:24;100576.31;;;11.73;56.43
27984;BME280;15317;50.360;8.726;2023-05-03T07:17:30;100569.63;;;12.91;55.51
27984;BME280;15317;50.360;8.726;2023-05-03T07:22:33;100572.91;;;13.41;55.33
27984;BME280;15317;50.360;8.726;2023-05-03T07:27:36;100586.94;;;13.73;53.95
27984;BME280;15317;50.360;8.726;2023-05-03T07:32:41;100589.16;;;14.23;51.82
27984;BME280;15317;50.360;8.726;2023-05-03T07:37:44;100585.75;;;15.16;48.70
27984;BME280;15317;50.360;8.726;2023-05-03T07:42:47;100593.13;;;15.50;47.41
27984;BME280;15317;50.360;8.726;2023-05-03T07:47:51;100583.88;;;14.39;47.95
27984;BME280;15317;50.360;8.726;2023-05-03T07:52:54;100587.28;;;15.45;46.18
27984;BME280;15317;50.360;8.726;2023-05-03T07:57:58;100574.81;;;15.92;50.12
27984;BME280;15317;50.360;8.726;2023-05-03T08:03:02;100582.00;;;15.93;44.07
27984;BME280;15317;50.360;8.726;2023-05-03T08:08:07;100578.19;;;15.78;44.92
27984;BME280;15317;50.360;8.726;2023-05-03T08:13:10;100578.28;;;16.35;44.46
27984;BME280;15317;50.360;8.726;2023-05-03T08:18:15;100564.44;;;16.69;47.51
27984;BME280;15317;50.360;8.726;2023-05-03T08:23:18;100566.81;;;16.55;43.80
27984;BME280;15317;50.360;8.726;2023-05-03T08:28:22;100569.41;;;15.58;44.06
27984;BME280;15317;50.360;8.726;2023-05-03T08:33:26;100565.72;;;17.60;45.45
27984;BME280;15317;50.360;8.726;2023-05-03T08:38:30;100570.94;;;17.86;40.80
27984;BME280;15317;50.360;8.726;2023-05-03T08:43:37;100568.34;;;17.46;42.97
27984;BME280;15317;50.360;8.726;2023-05-03T08:48:46;100577.28;;;17.87;42.49
27984;BME280;15317;50.360;8.726;2023-05-03T08:53:50;100569.81;;;19.45;38.16
27984;BME280;15317;50.360;8.726;2023-05-03T08:58:53;100578.63;;;18.36;40.54
27984;BME280;15317;50.360;8.726;2023-05-03T09:03:58;100571.34;;;18.89;38.53
27984;BME280;15317;50.360;8.726;2023-05-03T09:09:04;100572.75;;;18.85;39.65
27984;BME280;15317;50.360;8.726;2023-05-03T09:14:10;100570.69;;;17.57;42.45
27984;BME280;15317;50.360;8.726;2023-05-03T09:19:15;100569.00;;;17.01;41.74
27984;BME280;15317;50.360;8.726;2023-05-03T09:24:19;100557.41;;;17.37;40.87
27984;BME280;15317;50.360;8.726;2023-05-03T09:29:26;100547.59;;;16.55;42.80
27984;BME280;15317;50.360;8.726;2023-05-03T09:34:32;100550.53;;;17.81;42.42
27984;BME280;15317;50.360;8.726;2023-05-03T09:39:36;100542.38;;;17.56;40.54
27984;BME280;15317;50.360;8.726;2023-05-03T09:44:41;100543.72;;;19.26;37.31
27984;BME280;15317;50.360;8.726;2023-05-03T09:49:46;100536.47;;;18.67;38.14
27984;BME280;15317;50.360;8.726;2023-05-03T09:54:51;100539.66;;;20.45;37.66
27984;BME280;15317;50.360;8.726;2023-05-03T09:59:55;100536.59;;;19.32;38.32
27984;BME280;15317;50.360;8.726;2023-05-03T10:05:01;100518.34;;;18.12;38.68
27984;BME280;15317;50.360;8.726;2023-05-03T10:10:07;100511.31;;;18.09;42.48
27984;BME280;15317;50.360;8.726;2023-05-03T10:15:12;100512.78;;;18.20;39.73
27984;BME280;15317;50.360;8.726;2023-05-03T10:20:24;100519.00;;;18.60;40.34
27984;BME280;15317;50.360;8.726;2023-05-03T10:25:29;100520.53;;;18.77;41.06
27984;BME280;15317;50.360;8.726;2023-05-03T10:30:33;100515.47;;;18.28;42.52
27984;BME280;15317;50.360;8.726;2023-05-03T10:35:40;100512.44;;;18.61;40.12
27984;BME280;15317;50.360;8.726;2023-05-03T10:40:43;100506.88;;;19.27;38.66
27984;BME280;15317;50.360;8.726;2023-05-03T10:45:49;100523.84;;;19.96;39.58
27984;BME280;15317;50.360;8.726;2023-05-03T10:50:55;100523.22;;;20.58;38.65
27984;BME280;15317;50.360;8.726;2023-05-03T10:56:01;100507.03;;;19.41;36.40
27984;BME280;15317;50.360;8.726;2023-05-03T11:01:08;100510.97;;;19.17;38.81
27984;BME280;15317;50.360;8.726;2023-05-03T11:06:32;100502.63;;;20.88;36.04
27984;BME280;15317;50.360;8.726;2023-05-03T11:11:38;100496.22;;;19.90;38.73
27984;BME280;15317;50.360;8.726;2023-05-03T11:16:43;100487.94;;;20.11;35.48
27984;BME280;15317;50.360;8.726;2023-05-03T11:21:53;100482.84;;;18.63;36.24
27984;BME280;15317;50.360;8.726;2023-05-03T11:26:56;100473.13;;;20.12;38.90
27984;BME280;15317;50.360;8.726;2023-05-03T11:31:59;100477.50;;;21.52;34.92
27984;BME280;15317;50.360;8.726;2023-05-03T11:37:04;100472.50;;;19.95;37.63
27984;BME280;15317;50.360;8.726;2023-05-03T11:42:09;100465.66;;;19.19;38.52
27984;BME280;15317;50.360;8.726;2023-05-03T11:47:13;100469.63;;;18.58;38.59
27984;BME280;15317;50.360;8.726;2023-05-03T11:52:21;100469.44;;;19.84;35.99
27984;BME280;15317;50.360;8.726;2023-05-03T11:57:24;100463.59;;;20.36;36.68
27984;BME280;15317;50.360;8.726;2023-05-03T12:02:27;100457.72;;;19.82;36.25
27984;BME280;15317;50.360;8.726;2023-05-03T12:07:32;100442.22;;;18.94;36.73
27984;BME280;15317;50.360;8.726;2023-05-03T12:12:36;100437.56;;;19.09;35.82
27984;BME280;15317;50.360;8.726;2023-05-03T12:17:47;100437.44;;;20.10;36.77
27984;BME280;15317;50.360;8.726;2023-05-03T12:23:02;100442.28;;;20.85;37.88
27984;BME280;15317;50.360;8.726;2023-05-03T12:28:06;100441.78;;;19.77;34.72
27984;BME280;15317;50.360;8.726;2023-05-03T12:33:12;100426.06;;;20.20;37.58
27984;BME280;15317;50.360;8.726;2023-05-03T12:38:19;100419.88;;;20.67;37.73
27984;BME280;15317;50.360;8.726;2023-05-03T12:43:25;100406.69;;;21.04;36.49
27984;BME280;15317;50.360;8.726;2023-05-03T12:48:29;100409.22;;;20.64;35.22
27984;BME280;15317;50.360;8.726;2023-05-03T12:53:35;100404.97;;;21.03;37.57
27984;BME280;15317;50.360;8.726;2023-05-03T12:58:40;100394.00;;;19.91;36.24
27984;BME280;15317;50.360;8.726;2023-05-03T13:04:03;100382.00;;;20.96;36.70
27984;BME280;15317;50.360;8.726;2023-05-03T13:09:28;100380.25;;;20.88;37.25
27984;BME280;15317;50.360;8.726;2023-05-03T13:14:53;100377.38;;;20.68;36.27
27984;BME280;15317;50.360;8.726;2023-05-03T13:19:56;100358.69;;;19.02;38.05
27984;BME280;15317;50.360;8.726;2023-05-03T13:25:01;100360.34;;;20.30;36.73
27984;BME280;15317;50.360;8.726;2023-05-03T13:30:06;100355.13;;;19.86;34.70
27984;BME280;15317;50.360;8.726;2023-05-03T13:35:10;100352.06;;;20.58;36.44
27984;BME280;15317;50.360;8.726;2023-05-03T13:40:15;100352.16;;;21.19;35.91
27984;BME280;15317;50.360;8.726;2023-05-03T13:45:18;100345.69;;;21.86;36.44
27984;BME280;15317;50.360;8.726;2023-05-03T13:50:22;100339.44;;;20.77;36.32
27984;BME280;15317;50.360;8.726;2023-05-03T13:55:26;100327.16;;;19.25;38.01
27984;BME280;15317;50.360;8.726;2023-05-03T14:00:30;100315.63;;;19.15;38.25
27984;BME280;15317;50.360;8.726;2023-05-03T14:05:34;100313.84;;;20.55;36.71
27984;BME280;15317;50.360;8.726;2023-05-03T14:10:38;100307.47;;;20.27;36.96
27984;BME280;15317;50.360;8.726;2023-05-03T14:15:42;100296.63;;;19.63;35.29
27984;BME280;15317;50.360;8.726;2023-05-03T14:20:46;100281.28;;;19.54;37.32
27984;BME280;15317;50.360;8.726;2023-05-03T14:25:52;100282.25;;;21.25;37.90
27984;BME280;15317;50.360;8.726;2023-05-03T14:30:56;100283.34;;;19.73;34.46
27984;BME280;15317;50.360;8.726;2023-05-03T14:35:59;100276.78;;;19.31;37.49
27984;BME280;15317;50.360;8.726;2023-05-03T14:41:03;100282.44;;;20.63;36.56
27984;BME280;15317;50.360;8.726;2023-05-03T14:46:07;100277.00;;;20.35;35.39
27984;BME280;15317;50.360;8.726;2023-05-03T14:51:11;100259.84;;;20.05;36.05
27984;BME280;15317;50.360;8.726;2023-05-03T14:56:17;100257.00;;;19.00;37.25
27984;BME280;15317;50.360;8.726;2023-05-03T15:01:20;100243.47;;;18.84;36.37
27984;BME280;15317;50.360;8.726;2023-05-03T15:06:25;100242.91;;;19.31;38.50
27984;BME280;15317;50.360;8.726;2023-05-03T15:11:30;100245.22;;;19.49;36.10
27984;BME280;15317;50.360;8.726;2023-05-03T15:16:33;100242.63;;;19.47;38.19
27984;BME280;15317;50.360;8.726;2023-05-03T15:21:44;100243.75;;;19.81;36.39
27984;BME280;15317;50.360;8.726;2023-05-03T15:26:49;100244.03;;;20.27;36.80
27984;BME280;15317;50.360;8.726;2023-05-03T15:31:53;100241.13;;;19.72;37.35
27984;BME280;15317;50.360;8.726;2023-05-03T15:36:56;100230.31;;;19.22;34.97
27984;BME280;15317;50.360;8.726;2023-05-03T15:42:01;100224.34;;;18.97;36.23
27984;BME280;15317;50.360;8.726;2023-05-03T15:47:04;100221.50;;;19.33;38.07
27984;BME280;15317;50.360;8.726;2023-05-03T15:52:07;100221.50;;;19.82;35.16
27984;BME280;15317;50.360;8.726;2023-05-03T15:57:14;100215.75;;;20.11;36.38
27984;BME280;15317;50.360;8.726;2023-05-03T16:02:18;100216.31;;;19.45;36.77
27984;BME280;15317;50.360;8.726;2023-05-03T16:07:22;100209.38;;;18.85;36.75
27984;BME280;15317;50.360;8.726;2023-05-03T16:12:26;100214.78;;;18.42;36.27
27984;BME280;15317;50.360;8.726;2023-05-03T16:17:29;100212.63;;;18.38;38.54
27984;BME280;15317;50.360;8.726;2023-05-03T16:22:33;100206.03;;;18.17;37.11
27984;BME280;15317;50.360;8.726;2023-05-03T16:27:38;100211.94;;;18.00;38.10
27984;BME280;15317;50.360;8.726;2023-05-03T16:32:41;100207.19;;;17.94;38.36
27984;BME280;15317;50.360;8.726;2023-05-03T16:37:44;100203.41;;;17.80;36.57
27984;BME280;15317;50.360;8.726;2023-05-03T16:42:49;100196.75;;;17.74;36.40
27984;BME280;15317;50.360;8.726;2023-05-03T16:47:52;100193.34;;;17.72;36.35
27984;BME280;15317;50.360;8.726;2023-05-03T16:52:55;100189.88;;;17.41;36.04
27984;BME280;15317;50.360;8.726;2023-05-03T16:58:00;100195.47;;;17.33;37.73
27984;BME280;15317;50.360;8.726;2023-05-03T17:03:03;100190.47;;;17.14;37.83
27984;BME280;15317;50.360;8.726;2023-05-03T17:08:07;100180.69;;;16.96;41.48
27984;BME280;15317;50.360;8.726;2023-05-03T17:13:11;100175.63;;;16.85;40.89
27984;BME280;15317;50.360;8.726;2023-05-03T17:18:16;100181.91;;;16.71;39.62
27984;BME280;15317;50.360;8.726;2023-05-03T17:23:19;100178.03;;;16.57;43.23
27984;BME280;15317;50.360;8.726;2023-05-03T17:28:23;100179.47;;;16.45;44.04
27984;BME280;15317;50.360;8.726;2023-05-03T17:33:26;100176.50;;;16.24;42.38
27984;BME280;15317;50.360;8.726;2023-05-03T17:38:30;100181.56;;;16.04;43.50
27984;BME280;15317;50.360;8.726;2023-05-03T17:43:34;100184.41;;;15.80;43.31
27984;BME280;15317;50.360;8.726;2023-05-03T17:48:39;100188.38;;;15.69;44.22
27984;BME280;15317;50.360;8.726;2023-05-03T17:53:43;100181.41;;;15.42;45.64
27984;BME280;15317;50.360;8.726;2023-05-03T17:58:47;100172.00;;;15.29;45.80
27984;BME280;15317;50.360;8.726;2023-05-03T18:03:51;100170.88;;;14.99;46.89
27984;BME280;15317;50.360;8.726;2023-05-03T18:08:54;100176.00;;;14.78;47.73
27984;BME280;15317;50.360;8.726;2023-05-03T18:13:59;100173.41;;;14.60;47.98
27984;BME280;15317;50.360;8.726;2023-05-03T18:19:02;100176.06;;;14.36;47.42
27984;BME280;15317;50.360;8.726;2023-05-03T18:24:06;100170.34;;;14.13;49.98
27984;BME280;15317;50.360;8.726;2023-05-03T18:29:10;100172.38;;;14.03;49.48
27984;BME280;15317;50.360;8.726;2023-05-03T18:34:13;100179.19;;;13.91;47.75
27984;BME280;15317;50.360;8.726;2023-05-03T18:39:17;100180.09;;;13.73;47.78
27984;BME280;15317;50.360;8.726;2023-05-03T18:44:21;100181.22;;;13.55;49.14
27984;BME280;15317;50.360;8.726;2023-05-03T18:49:26;100188.63;;;13.36;49.33
27984;BME280;15317;50.360;8.726;2023-05-03T18:54:30;100189.34;;;13.21;48.81
27984;BME280;15317;50.360;8.726;2023-05-03T18:59:34;100185.16;;;13.09;48.95
27984;BME280;15317;50.360;8.726;2023-05-03T19:04:53;100193.56;;;12.97;50.02
27984;BME280;15317;50.360;8.726;2023-05-03T19:09:57;100189.38;;;12.85;51.26
27984;BME280;15317;50.360;8.726;2023-05-03T19:15:03;100202.63;;;12.62;50.81
27984;BME280;15317;50.360;8.726;2023-05-03T19:20:07;100192.56;;;12.45;51.67
27984;BME280;15317;50.360;8.726;2023-05-03T19:25:12;100201.84;;;12.35;50.92
27984;BME280;15317;50.360;8.726;2023-05-03T19:30:17;100210.47;;;12.30;51.15
27984;BME280;15317;50.360;8.726;2023-05-03T19:35:21;100207.72;;;12.12;51.88
27984;BME280;15317;50.360;8.726;2023-05-03T19:40:24;100210.63;;;12.01;52.10
27984;BME280;15317;50.360;8.726;2023-05-03T19:45:28;100207.41;;;11.88;52.51
27984;BME280;15317;50.360;8.726;2023-05-03T19:50:34;100209.63;;;11.75;54.86
27984;BME280;15317;50.360;8.726;2023-05-03T19:55:37;100205.22;;;11.55;55.58
27984;BME280;15317;50.360;8.726;2023-05-03T20:00:42;100210.13;;;11.41;55.94
27984;BME280;15317;50.360;8.726;2023-05-03T20:05:45;100204.75;;;11.22;57.96
27984;BME280;15317;50.360;8.726;2023-05-03T20:10:49;100199.50;;;11.01;58.75
27984;BME280;15317;50.360;8.726;2023-05-03T20:15:53;100204.69;;;10.76;61.93
27984;BME280;15317;50.360;8.726;2023-05-03T20:20:57;100202.97;;;10.55;61.75
27984;BME280;15317;50.360;8.726;2023-05-03T20:26:00;100195.66;;;10.37;62.79
27984;BME280;15317;50.360;8.726;2023-05-03T20:31:04;100193.47;;;10.30;63.45
27984;BME280;15317;50.360;8.726;2023-05-03T20:36:07;100192.50;;;10.22;65.10
27984;BME280;15317;50.360;8.726;2023-05-03T20:41:10;100183.72;;;10.09;67.03
27984;BME280;15317;50.360;8.726;2023-05-03T20:46:16;100173.97;;;9.97;66.51
27984;BME280;15317;50.360;8.726;2023-05-03T20:51:19;100173.91;;;9.77;69.72
27984;BME280;15317;50.360;8.726;2023-05-03T20:56:22;100182.34;;;9.74;70.10
27984;BME280;15317;50.360;8.726;2023-05-03T21:01:26;100179.72;;;9.63;70.27
27984;BME280;15317;50.360;8.726;2023-05-03T21:06:30;100185.13;;;9.63;69.67
27984;BME280;15317;50.360;8.726;2023-05-03T21:11:33;100183.53;;;9.51;69.82
27984;BME280;15317;50.360;8.726;2023-05-03T21:16:37;100194.38;;;9.51;68.84
27984;BME280;15317;50.360;8.726;2023-05-03T21:21:40;100190.50;;;9.44;69.33
27984;BME280;15317;50.360;8.726;2023-05-03T21:26:43;100185.47;;;9.39;69.17
27984;BME280;15317;50.360;8.726;2023-05-03T21:31:49;100184.88;;;9.36;68.92
27984;BME280;15317;50.360;8.726;2023-05-03T21:36:52;100187.91;;;9.42;68.08
27984;BME280;15317;50.360;8.726;2023-05-03T21:41:55;100183.31;;;9.33;69.37
27984;BME280;15317;50.360;8.726;2023-05-03T21:47:00;100177.84;;;9.24;69.17
27984;BME280;15317;50.360;8.726;2023-05-03T21:52:04;100175.16;;;9.03;71.03
27984;BME280;15317;50.360;8.726;2023-05-03T21:57:07;100171.91;;;8.88;73.04
27984;BME280;15317;50.360;8.726;2023-05-03T22:02:12;100168.28;;;8.78;70.81
27984;BME280;15317;50.360;8.726;2023-05-03T22:07:15;100162.09;;;8.66;69.77
27984;BME280;15317;50.360;8.726;2023-05-03T22:12:18;100164.38;;;8.71;69.01
27984;BME280;15317;50.360;8.726;2023-05-03T22:17:27;100165.97;;;8.73;70.14
27984;BME280;15317;50.360;8.726;2023-05-03T22:22:30;100158.53;;;8.66;69.84
27984;BME280;15317;50.360;8.726;2023-05-03T22:27:34;100161.16;;;8.56;72.64
27984;BME280;15317;50.360;8.726;2023-05-03T22:32:38;100154.94;;;8.45;72.85
27984;BME280;15317;50.360;8.726;2023-05-03T22:37:42;100160.88;;;8.39;73.14
27984;BME280;15317;50.360;8.726;2023-05-03T22:42:45;100145.53;;;8.49;73.00
27984;BME280;15317;50.360;8.726;2023-05-03T22:47:49;100142.06;;;8.58;72.21
27984;BME280;15317;50.360;8.726;2023-05-03T22:52:52;100144.31;;;8.53;72.37
27984;BME280;15317;50.360;8.726;2023-05-03T22:57:55;100132.78;;;8.40;74.05
27984;BME280;15317;50.360;8.726;2023-05-03T23:03:00;100122.63;;;8.32;75.55
27984;BME280;15317;50.360;8.726;2023-05-03T23:08:04;100132.88;;;8.06;77.68
27984;BME280;15317;50.360;8.726;2023-05-03T23:13:08;100138.09;;;7.98;77.63
27984;BME280;15317;50.360;8.726;2023-05-03T23:18:13;100150.84;;;8.07;77.22
27984;BME280;15317;50.360;8.726;2023-05-03T23:23:16;100142.00;;;8.05;78.38
27984;BME280;15317;50.360;8.726;2023-05-03T23:28:19;100139.09;;;7.97;78.56
27984;BME280;15317;50.360;8.726;2023-05-03T23:33:24;100138.59;;;7.92;77.98
27984;BME280;15317;50.360;8.726;2023-05-03T23:38:28;100134.44;;;7.88;76.93
27984;BME280;15317;50.360;8.726;2023-05-03T23:43:31;100133.72;;;7.75;80.09
27984;BME280;15317;50.360;8.726;2023-05-03T23:48:35;100123.81;;;7.53;80.57
27984;BME280;15317;50.360;8.726;2023-05-03T23:53:38;100122.47;;;7.47;79.91
27984;BME280;15317;50.360;8.726;2023-05-03T23:58:41;100127.50;;;7.52;81.05
